sensor_id;sensor_type;location;lat;lon;timestamp;pressure;altitude;pressure_sealevel;temperature;humidity
45523;BME280;31254;51.680;5.394;2023-05-19T00:00:02;102725.63;;;9.33;64.72
45523;BME280;31254;51.680;5.394;2023-05-19T00:02:33;102713.44;;;9.24;64.63
45523;BME280;31254;51.680;5.394;2023-05-19T00:05:01;102698.75;;;9.12;65.08
45523;BME280;31254;51.680;5.394;2023-05-19T00:07:30;102630.91;;;8.65;65.29
45523;BME280;31254;51.680;5.394;2023-05-19T00:09:58;102679.09;;;8.93;65.73
45523;BME280;31254;51.680;5.394;2023-05-19T00:12:26;102707.66;;;9.00;65.83
45523;BME280;31254;51.680;5.394;2023-05-19T00:14:53;102723.44;;;9.09;65.86
45523;BME280;31254;51.680;5.394;2023-05-19T00:17:23;102702.41;;;8.97;66.22
45523;BME280;31254;51.680;5.394;2023-05-19T00:19:50;102707.66;;;9.00;65.81
45523;BME280;31254;51.680;5.394;2023-05-19T00:22:18;102680.59;;;8.83;66.05
45523;BME280;31254;51.680;5.394;2023-05-19T00:24:45;102691.22;;;8.87;66.24
45523;BME280;31254;51.680;5.394;2023-05-19T00:27:12;102709.72;;;8.96;66.85
45523;BME280;31254;51.680;5.394;2023-05-19T00:29:39;102684.41;;;8.80;66.73
45523;BME280;31254;51.680;5.394;2023-05-19T00:32:08;102700.94;;;8.91;67.00
45523;BME280;31254;51.680;5.394;2023-05-19T00:34:38;102692.47;;;8.82;67.17
45523;BME280;31254;51.680;5.394;2023-05-19T00:37:05;102691.00;;;8.76;67.19
45523;BME280;31254;51.680;5.394;2023-05-19T00:39:32;102691.25;;;8.71;67.90
45523;BME280;31254;51.680;5.394;2023-05-19T00:41:59;102693.97;;;8.71;67.93
45523;BME280;31254;51.680;5.394;2023-05-19T00:44:26;102674.03;;;8.56;68.58
45523;BME280;31254;51.680;5.394;2023-05-19T00:46:56;102684.81;;;8.58;68.74
45523;BME280;31254;51.680;5.394;2023-05-19T00:49:23;102694.06;;;8.55;69.72
45523;BME280;31254;51.680;5.394;2023-05-19T00:51:50;102692.22;;;8.56;69.11
45523;BME280;31254;51.680;5.394;2023-05-19T00:54:19;102667.72;;;8.40;69.44
45523;BME280;31254;51.680;5.394;2023-05-19T00:56:46;102686.25;;;8.49;69.61
45523;BME280;31254;51.680;5.394;2023-05-19T00:59:15;102642.41;;;8.23;69.15
45523;BME280;31254;51.680;5.394;2023-05-19T01:01:43;102676.25;;;8.50;69.04
45523;BME280;31254;51.680;5.394;2023-05-19T01:04:11;102683.34;;;8.52;69.24
45523;BME280;31254;51.680;5.394;2023-05-19T01:06:42;102698.50;;;8.56;69.50
45523;BME280;31254;51.680;5.394;2023-05-19T01:09:09;102700.28;;;8.57;69.36
45523;BME280;31254;51.680;5.394;2023-05-19T01:11:37;102686.16;;;8.51;69.51
45523;BME280;31254;51.680;5.394;2023-05-19T01:14:04;102640.84;;;8.19;69.22
45523;BME280;31254;51.680;5.394;2023-05-19T01:32:40;102684.75;;;8.28;69.74
45523;BME280;31254;51.680;5.394;2023-05-19T01:35:09;102672.75;;;8.16;70.02
45523;BME280;31254;51.680;5.394;2023-05-19T01:37:38;102662.81;;;8.00;70.55
45523;BME280;31254;51.680;5.394;2023-05-19T01:40:10;102639.31;;;7.83;71.02
45523;BME280;31254;51.680;5.394;2023-05-19T01:42:38;102683.03;;;8.11;71.38
45523;BME280;31254;51.680;5.394;2023-05-19T01:45:08;102683.13;;;8.09;71.32
45523;BME280;31254;51.680;5.394;2023-05-19T01:47:40;102682.19;;;8.10;71.17
45523;BME280;31254;51.680;5.394;2023-05-19T01:50:08;102681.00;;;8.14;70.98
45523;BME280;31254;51.680;5.394;2023-05-19T01:52:36;102678.66;;;8.08;71.28
45523;BME280;31254;51.680;5.394;2023-05-19T01:55:09;102656.84;;;7.94;71.12
45523;BME280;31254;51.680;5.394;2023-05-19T02:00:34;102501.59;;;7.06;71.30
45523;BME280;31254;51.680;5.394;2023-05-19T02:05:54;102672.44;;;8.06;71.58
45523;BME280;31254;51.680;5.394;2023-05-19T02:08:56;102663.06;;;7.96;71.29
45523;BME280;31254;51.680;5.394;2023-05-19T02:11:39;102658.66;;;7.93;71.46
45523;BME280;31254;51.680;5.394;2023-05-19T02:14:14;102679.28;;;7.97;71.78
45523;BME280;31254;51.680;5.394;2023-05-19T02:16:47;102672.16;;;7.95;71.84
45523;BME280;31254;51.680;5.394;2023-05-19T02:19:26;102675.06;;;7.92;71.95
45523;BME280;31254;51.680;5.394;2023-05-19T02:21:53;102674.38;;;7.88;72.15
45523;BME280;31254;51.680;5.394;2023-05-19T02:24:20;102658.75;;;7.76;72.18
45523;BME280;31254;51.680;5.394;2023-05-19T02:26:51;102656.13;;;7.74;72.52
45523;BME280;31254;51.680;5.394;2023-05-19T02:29:21;102665.78;;;7.80;72.33
45523;BME280;31254;51.680;5.394;2023-05-19T02:31:48;102664.03;;;7.79;72.39
45523;BME280;31254;51.680;5.394;2023-05-19T02:34:15;102677.44;;;7.82;72.33
45523;BME280;31254;51.680;5.394;2023-05-19T02:36:42;102669.44;;;7.79;72.41
45523;BME280;31254;51.680;5.394;2023-05-19T02:39:10;102642.19;;;7.64;72.66
45523;BME280;31254;51.680;5.394;2023-05-19T02:41:37;102649.13;;;7.70;72.65
45523;BME280;31254;51.680;5.394;2023-05-19T02:44:04;102654.41;;;7.73;72.55
45523;BME280;31254;51.680;5.394;2023-05-19T02:46:32;102657.19;;;7.72;72.04
45523;BME280;31254;51.680;5.394;2023-05-19T02:48:59;102644.72;;;7.67;72.74
45523;BME280;31254;51.680;5.394;2023-05-19T02:51:27;102635.28;;;7.59;72.61
45523;BME280;31254;51.680;5.394;2023-05-19T02:53:56;102645.00;;;7.63;72.76
45523;BME280;31254;51.680;5.394;2023-05-19T02:56:26;102635.63;;;7.53;73.05
45523;BME280;31254;51.680;5.394;2023-05-19T02:58:53;102656.16;;;7.58;72.94
45523;BME280;31254;51.680;5.394;2023-05-19T03:01:21;102626.34;;;7.41;73.20
45523;BME280;31254;51.680;5.394;2023-05-19T03:03:48;102652.78;;;7.53;73.28
45523;BME280;31254;51.680;5.394;2023-05-19T03:06:15;102618.53;;;7.35;73.12
45523;BME280;31254;51.680;5.394;2023-05-19T03:08:46;102631.06;;;7.37;73.31
45523;BME280;31254;51.680;5.394;2023-05-19T03:11:17;102650.44;;;7.47;73.50
45523;BME280;31254;51.680;5.394;2023-05-19T03:13:46;102641.94;;;7.37;73.57
45523;BME280;31254;51.680;5.394;2023-05-19T03:16:13;102641.75;;;7.40;73.63
45523;BME280;31254;51.680;5.394;2023-05-19T03:18:41;102630.53;;;7.30;73.73
45523;BME280;31254;51.680;5.394;2023-05-19T03:21:11;102643.66;;;7.38;74.18
45523;BME280;31254;51.680;5.394;2023-05-19T03:23:41;102629.97;;;7.24;74.43
45523;BME280;31254;51.680;5.394;2023-05-19T03:26:07;102626.47;;;7.22;74.38
45523;BME280;31254;51.680;5.394;2023-05-19T03:28:34;102618.56;;;7.17;74.60
45523;BME280;31254;51.680;5.394;2023-05-19T03:31:02;102629.28;;;7.20;74.77
45523;BME280;31254;51.680;5.394;2023-05-19T03:33:29;102659.75;;;7.25;75.20
45523;BME280;31254;51.680;5.394;2023-05-19T03:35:56;102658.09;;;7.23;75.45
45523;BME280;31254;51.680;5.394;2023-05-19T03:38:25;102648.28;;;7.20;75.52
45523;BME280;31254;51.680;5.394;2023-05-19T03:40:52;102492.50;;;6.24;75.62
45523;BME280;31254;51.680;5.394;2023-05-19T03:43:19;102648.69;;;7.12;75.96
45523;BME280;31254;51.680;5.394;2023-05-19T03:45:48;102622.31;;;6.99;76.01
45523;BME280;31254;51.680;5.394;2023-05-19T03:48:21;102663.63;;;7.21;76.21
45523;BME280;31254;51.680;5.394;2023-05-19T03:50:48;102653.78;;;7.19;76.06
45523;BME280;31254;51.680;5.394;2023-05-19T03:53:19;102663.38;;;7.26;76.49
45523;BME280;31254;51.680;5.394;2023-05-19T03:55:49;102665.00;;;7.28;76.12
45523;BME280;31254;51.680;5.394;2023-05-19T03:58:16;102664.06;;;7.29;76.77
45523;BME280;31254;51.680;5.394;2023-05-19T04:00:43;102641.13;;;7.19;77.17
45523;BME280;31254;51.680;5.394;2023-05-19T04:03:10;102656.63;;;7.33;76.98
45523;BME280;31254;51.680;5.394;2023-05-19T04:05:39;102663.72;;;7.36;76.79
45523;BME280;31254;51.680;5.394;2023-05-19T04:08:09;102650.25;;;7.34;76.86
45523;BME280;31254;51.680;5.394;2023-05-19T04:10:36;102666.19;;;7.40;76.57
45523;BME280;31254;51.680;5.394;2023-05-19T04:13:06;102643.81;;;7.35;77.02
45523;BME280;31254;51.680;5.394;2023-05-19T04:15:33;102649.09;;;7.38;77.20
45523;BME280;31254;51.680;5.394;2023-05-19T04:18:00;102643.56;;;7.40;77.14
45523;BME280;31254;51.680;5.394;2023-05-19T04:20:27;102655.31;;;7.56;77.25
45523;BME280;31254;51.680;5.394;2023-05-19T04:22:54;102649.28;;;7.51;77.32
45523;BME280;31254;51.680;5.394;2023-05-19T04:25:21;102644.47;;;7.56;77.54
45523;BME280;31254;51.680;5.394;2023-05-19T04:27:53;102665.34;;;7.72;77.13
45523;BME280;31254;51.680;5.394;2023-05-19T04:30:25;102652.63;;;7.72;77.29
45523;BME280;31254;51.680;5.394;2023-05-19T04:32:56;102629.34;;;7.68;77.29
45523;BME280;31254;51.680;5.394;2023-05-19T04:35:23;102645.44;;;7.87;77.49
45523;BME280;31254;51.680;5.394;2023-05-19T04:37:50;102627.91;;;7.77;78.05
45523;BME280;31254;51.680;5.394;2023-05-19T04:40:20;102657.38;;;8.00;78.29
45523;BME280;31254;51.680;5.394;2023-05-19T04:42:52;102644.81;;;7.98;78.27
45523;BME280;31254;51.680;5.394;2023-05-19T04:45:22;102646.03;;;8.08;77.72
45523;BME280;31254;51.680;5.394;2023-05-19T04:47:49;102660.28;;;8.28;77.45
45523;BME280;31254;51.680;5.394;2023-05-19T04:50:22;102659.41;;;8.43;77.17
45523;BME280;31254;51.680;5.394;2023-05-19T04:52:55;102663.50;;;8.81;76.17
45523;BME280;31254;51.680;5.394;2023-05-19T04:55:26;102656.91;;;10.40;72.38
45523;BME280;31254;51.680;5.394;2023-05-19T04:57:56;102651.41;;;11.81;68.20
45523;BME280;31254;51.680;5.394;2023-05-19T05:00:23;102632.16;;;12.20;67.19
45523;BME280;31254;51.680;5.394;2023-05-19T05:02:50;102652.53;;;12.98;65.59
45523;BME280;31254;51.680;5.394;2023-05-19T05:05:23;102631.09;;;13.94;63.01
45523;BME280;31254;51.680;5.394;2023-05-19T05:07:50;102647.28;;;14.73;60.97
45523;BME280;31254;51.680;5.394;2023-05-19T05:10:19;102639.03;;;15.25;59.72
45523;BME280;31254;51.680;5.394;2023-05-19T05:12:50;102642.84;;;15.74;58.12
45523;BME280;31254;51.680;5.394;2023-05-19T05:15:22;102654.28;;;16.30;56.95
45523;BME280;31254;51.680;5.394;2023-05-19T05:17:54;102646.72;;;16.71;56.25
45523;BME280;31254;51.680;5.394;2023-05-19T05:20:21;102618.56;;;16.96;54.89
45523;BME280;31254;51.680;5.394;2023-05-19T05:22:51;102653.31;;;17.27;54.51
45523;BME280;31254;51.680;5.394;2023-05-19T05:25:19;102653.78;;;17.50;53.95
45523;BME280;31254;51.680;5.394;2023-05-19T05:27:48;102650.44;;;18.30;52.05
45523;BME280;31254;51.680;5.394;2023-05-19T05:30:18;102650.13;;;18.33;51.96
45523;BME280;31254;51.680;5.394;2023-05-19T05:32:45;102651.75;;;18.79;51.05
45523;BME280;31254;51.680;5.394;2023-05-19T05:35:12;102644.72;;;19.38;49.54
45523;BME280;31254;51.680;5.394;2023-05-19T05:37:41;102642.84;;;19.46;49.16
45523;BME280;31254;51.680;5.394;2023-05-19T05:40:11;102640.50;;;19.68;48.86
45523;BME280;31254;51.680;5.394;2023-05-19T05:42:39;102647.78;;;20.12;47.86
45523;BME280;31254;51.680;5.394;2023-05-19T05:45:10;102647.16;;;20.59;47.05
45523;BME280;31254;51.680;5.394;2023-05-19T05:47:38;102635.56;;;19.45;48.82
45523;BME280;31254;51.680;5.394;2023-05-19T05:50:08;102626.50;;;19.27;49.18
45523;BME280;31254;51.680;5.394;2023-05-19T05:52:36;102643.09;;;19.61;48.41
45523;BME280;31254;51.680;5.394;2023-05-19T05:55:04;102631.16;;;20.12;47.17
45523;BME280;31254;51.680;5.394;2023-05-19T05:57:31;102639.50;;;21.02;45.36
45523;BME280;31254;51.680;5.394;2023-05-19T06:00:14;102647.91;;;21.89;44.38
45523;BME280;31254;51.680;5.394;2023-05-19T06:02:49;102633.91;;;22.37;43.45
45523;BME280;31254;51.680;5.394;2023-05-19T06:05:16;102642.38;;;22.44;42.78
45523;BME280;31254;51.680;5.394;2023-05-19T06:07:43;102640.22;;;22.31;43.38
45523;BME280;31254;51.680;5.394;2023-05-19T06:10:13;102648.63;;;21.91;43.93
45523;BME280;31254;51.680;5.394;2023-05-19T06:12:40;102607.88;;;21.28;44.38
45523;BME280;31254;51.680;5.394;2023-05-19T06:15:09;102626.31;;;21.21;44.44
45523;BME280;31254;51.680;5.394;2023-05-19T06:17:35;102643.75;;;21.37;43.86
45523;BME280;31254;51.680;5.394;2023-05-19T06:20:06;102632.84;;;22.38;42.32
45523;BME280;31254;51.680;5.394;2023-05-19T06:22:39;102638.81;;;24.22;39.20
45523;BME280;31254;51.680;5.394;2023-05-19T06:25:24;102644.84;;;24.04;39.30
45523;BME280;31254;51.680;5.394;2023-05-19T06:27:52;102636.28;;;24.06;38.74
45523;BME280;31254;51.680;5.394;2023-05-19T06:30:22;102639.03;;;23.84;38.92
45523;BME280;31254;51.680;5.394;2023-05-19T06:32:49;102646.75;;;25.18;37.19
45523;BME280;31254;51.680;5.394;2023-05-19T06:35:16;102636.63;;;25.39;35.92
45523;BME280;31254;51.680;5.394;2023-05-19T06:37:45;102642.47;;;25.16;36.38
45523;BME280;31254;51.680;5.394;2023-05-19T06:40:16;102631.22;;;25.38;35.44
45523;BME280;31254;51.680;5.394;2023-05-19T06:42:46;102642.59;;;25.71;35.68
45523;BME280;31254;51.680;5.394;2023-05-19T06:45:13;102642.66;;;25.91;35.38
45523;BME280;31254;51.680;5.394;2023-05-19T06:47:40;102648.09;;;25.23;36.60
45523;BME280;31254;51.680;5.394;2023-05-19T06:50:08;102631.69;;;25.89;35.22
45523;BME280;31254;51.680;5.394;2023-05-19T06:52:36;102624.53;;;25.80;34.97
45523;BME280;31254;51.680;5.394;2023-05-19T06:55:04;102649.13;;;25.43;35.47
45523;BME280;31254;51.680;5.394;2023-05-19T06:57:31;102633.81;;;24.82;36.29
45523;BME280;31254;51.680;5.394;2023-05-19T07:00:01;102634.56;;;25.54;35.59
45523;BME280;31254;51.680;5.394;2023-05-19T07:02:29;102640.66;;;25.71;34.99
45523;BME280;31254;51.680;5.394;2023-05-19T07:04:58;102636.63;;;25.87;34.33
45523;BME280;31254;51.680;5.394;2023-05-19T07:07:25;102637.03;;;25.84;34.19
45523;BME280;31254;51.680;5.394;2023-05-19T07:09:52;102640.66;;;26.40;33.50
45523;BME280;31254;51.680;5.394;2023-05-19T07:12:18;102639.94;;;27.58;32.25
45523;BME280;31254;51.680;5.394;2023-05-19T07:14:45;102651.88;;;27.20;32.39
45523;BME280;31254;51.680;5.394;2023-05-19T07:17:12;102652.78;;;27.00;32.78
45523;BME280;31254;51.680;5.394;2023-05-19T07:19:38;102648.81;;;26.28;33.24
45523;BME280;31254;51.680;5.394;2023-05-19T07:22:07;102655.91;;;26.24;32.89
45523;BME280;31254;51.680;5.394;2023-05-19T07:24:34;102649.72;;;26.49;32.56
45523;BME280;31254;51.680;5.394;2023-05-19T07:27:01;102647.56;;;26.44;32.81
45523;BME280;31254;51.680;5.394;2023-05-19T07:29:30;102635.06;;;26.33;33.13
45523;BME280;31254;51.680;5.394;2023-05-19T07:31:56;102634.44;;;27.18;32.02
45523;BME280;31254;51.680;5.394;2023-05-19T07:34:23;102638.09;;;26.98;32.05
45523;BME280;31254;51.680;5.394;2023-05-19T07:36:53;102646.72;;;26.97;31.96
45523;BME280;31254;51.680;5.394;2023-05-19T07:39:21;102641.97;;;27.11;31.44
45523;BME280;31254;51.680;5.394;2023-05-19T07:41:50;102634.66;;;27.23;30.91
45523;BME280;31254;51.680;5.394;2023-05-19T07:44:21;102632.50;;;27.18;30.71
45523;BME280;31254;51.680;5.394;2023-05-19T07:46:49;102631.69;;;28.22;29.79
45523;BME280;31254;51.680;5.394;2023-05-19T07:49:18;102624.84;;;28.11;29.41
45523;BME280;31254;51.680;5.394;2023-05-19T07:51:45;102634.53;;;27.63;30.25
45523;BME280;31254;51.680;5.394;2023-05-19T07:54:14;102627.97;;;27.11;30.48
45523;BME280;31254;51.680;5.394;2023-05-19T07:56:41;102646.13;;;27.80;29.88
45523;BME280;31254;51.680;5.394;2023-05-19T07:59:07;102613.75;;;27.39;30.09
45523;BME280;31254;51.680;5.394;2023-05-19T08:01:36;102633.75;;;27.23;30.57
45523;BME280;31254;51.680;5.394;2023-05-19T08:04:03;102627.34;;;27.15;30.05
45523;BME280;31254;51.680;5.394;2023-05-19T08:06:31;102617.66;;;26.91;30.61
45523;BME280;31254;51.680;5.394;2023-05-19T08:09:00;102623.72;;;26.81;30.53
45523;BME280;31254;51.680;5.394;2023-05-19T08:11:27;102618.25;;;26.26;31.11
45523;BME280;31254;51.680;5.394;2023-05-19T08:13:54;102613.53;;;26.27;30.87
45523;BME280;31254;51.680;5.394;2023-05-19T08:16:21;102622.31;;;26.04;31.44
45523;BME280;31254;51.680;5.394;2023-05-19T08:18:50;102615.47;;;26.33;30.87
45523;BME280;31254;51.680;5.394;2023-05-19T08:21:17;102614.84;;;26.38;31.22
45523;BME280;31254;51.680;5.394;2023-05-19T08:23:44;102612.69;;;25.30;31.80
45523;BME280;31254;51.680;5.394;2023-05-19T08:26:10;102602.94;;;25.54;32.13
45523;BME280;31254;51.680;5.394;2023-05-19T08:28:40;102617.09;;;25.11;32.71
45523;BME280;31254;51.680;5.394;2023-05-19T08:31:06;102611.50;;;24.82;33.80
45523;BME280;31254;51.680;5.394;2023-05-19T08:33:33;102604.94;;;24.97;32.57
45523;BME280;31254;51.680;5.394;2023-05-19T08:36:00;102602.50;;;24.37;33.65
45523;BME280;31254;51.680;5.394;2023-05-19T08:38:27;102608.59;;;23.53;34.89
45523;BME280;31254;51.680;5.394;2023-05-19T08:40:54;102607.16;;;23.27;35.24
45523;BME280;31254;51.680;5.394;2023-05-19T08:43:20;102600.44;;;23.22;35.34
45523;BME280;31254;51.680;5.394;2023-05-19T08:45:47;102592.34;;;22.44;35.98
45523;BME280;31254;51.680;5.394;2023-05-19T08:48:16;102590.53;;;22.51;36.08
45523;BME280;31254;51.680;5.394;2023-05-19T08:50:56;102583.59;;;22.01;37.07
45523;BME280;31254;51.680;5.394;2023-05-19T08:53:35;102595.22;;;21.73;37.51
45523;BME280;31254;51.680;5.394;2023-05-19T08:56:11;102598.09;;;21.57;37.59
45523;BME280;31254;51.680;5.394;2023-05-19T08:58:41;102568.28;;;21.42;37.71
45523;BME280;31254;51.680;5.394;2023-05-19T09:01:18;102587.72;;;21.42;37.42
45523;BME280;31254;51.680;5.394;2023-05-19T09:03:46;102596.38;;;20.99;38.17
45523;BME280;31254;51.680;5.394;2023-05-19T09:06:15;102589.97;;;20.82;37.99
45523;BME280;31254;51.680;5.394;2023-05-19T09:08:43;102595.84;;;20.63;37.98
45523;BME280;31254;51.680;5.394;2023-05-19T09:11:10;102593.78;;;20.40;38.92
45523;BME280;31254;51.680;5.394;2023-05-19T09:13:38;102584.44;;;20.17;38.74
45523;BME280;31254;51.680;5.394;2023-05-19T09:16:04;102578.34;;;20.05;38.97
45523;BME280;31254;51.680;5.394;2023-05-19T09:18:37;102579.50;;;19.78;38.81
45523;BME280;31254;51.680;5.394;2023-05-19T09:21:05;102586.03;;;19.68;38.59
45523;BME280;31254;51.680;5.394;2023-05-19T09:23:33;102587.38;;;19.56;39.30
45523;BME280;31254;51.680;5.394;2023-05-19T09:26:02;102583.88;;;19.46;38.87
45523;BME280;31254;51.680;5.394;2023-05-19T09:28:31;102579.00;;;19.40;38.89
45523;BME280;31254;51.680;5.394;2023-05-19T09:33:29;102575.75;;;20.12;37.31
45523;BME280;31254;51.680;5.394;2023-05-19T09:36:01;102575.06;;;20.01;37.39
45523;BME280;31254;51.680;5.394;2023-05-19T09:38:29;102567.97;;;20.56;36.06
45523;BME280;31254;51.680;5.394;2023-05-19T09:40:57;102565.88;;;20.58;35.16
45523;BME280;31254;51.680;5.394;2023-05-19T09:43:28;102549.06;;;20.60;35.63
45523;BME280;31254;51.680;5.394;2023-05-19T09:46:06;102556.53;;;21.32;35.30
45523;BME280;31254;51.680;5.394;2023-05-19T09:48:34;102556.50;;;21.40;35.29
45523;BME280;31254;51.680;5.394;2023-05-19T09:51:03;102557.97;;;21.19;36.12
45523;BME280;31254;51.680;5.394;2023-05-19T09:53:33;102566.03;;;20.98;36.75
45523;BME280;31254;51.680;5.394;2023-05-19T09:56:01;102547.06;;;21.10;36.40
45523;BME280;31254;51.680;5.394;2023-05-19T09:58:32;102554.28;;;21.67;35.72
45523;BME280;31254;51.680;5.394;2023-05-19T10:01:02;102556.97;;;21.52;36.46
45523;BME280;31254;51.680;5.394;2023-05-19T10:03:32;102561.28;;;21.15;36.48
45523;BME280;31254;51.680;5.394;2023-05-19T10:06:00;102556.22;;;21.18;36.33
45523;BME280;31254;51.680;5.394;2023-05-19T10:08:29;102552.59;;;21.18;36.66
45523;BME280;31254;51.680;5.394;2023-05-19T10:10:58;102547.16;;;21.33;37.00
45523;BME280;31254;51.680;5.394;2023-05-19T10:13:25;102550.63;;;21.35;36.45
45523;BME280;31254;51.680;5.394;2023-05-19T10:15:52;102557.47;;;21.55;36.54
45523;BME280;31254;51.680;5.394;2023-05-19T10:18:25;102558.91;;;20.95;36.93
45523;BME280;31254;51.680;5.394;2023-05-19T10:20:53;102547.69;;;20.80;37.21
45523;BME280;31254;51.680;5.394;2023-05-19T10:23:20;102547.69;;;20.80;36.92
45523;BME280;31254;51.680;5.394;2023-05-19T10:25:50;102551.16;;;20.50;37.65
45523;BME280;31254;51.680;5.394;2023-05-19T10:28:18;102553.06;;;20.33;37.82
45523;BME280;31254;51.680;5.394;2023-05-19T10:30:55;102542.50;;;20.53;38.51
45523;BME280;31254;51.680;5.394;2023-05-19T10:34:00;102541.66;;;21.16;37.05
45523;BME280;31254;51.680;5.394;2023-05-19T10:36:43;102535.06;;;21.26;36.08
45523;BME280;31254;51.680;5.394;2023-05-19T10:39:24;102543.59;;;21.47;36.49
45523;BME280;31254;51.680;5.394;2023-05-19T10:42:21;102533.44;;;21.31;36.23
45523;BME280;31254;51.680;5.394;2023-05-19T10:45:01;102541.25;;;21.36;36.02
45523;BME280;31254;51.680;5.394;2023-05-19T10:47:30;102535.19;;;21.32;35.60
45523;BME280;31254;51.680;5.394;2023-05-19T10:50:03;102540.19;;;21.37;36.00
45523;BME280;31254;51.680;5.394;2023-05-19T10:52:35;102533.66;;;21.22;35.84
45523;BME280;31254;51.680;5.394;2023-05-19T10:55:03;102530.63;;;21.40;35.46
45523;BME280;31254;51.680;5.394;2023-05-19T10:57:30;102519.31;;;21.58;34.79
45523;BME280;31254;51.680;5.394;2023-05-19T11:00:25;102536.09;;;21.25;35.94
45523;BME280;31254;51.680;5.394;2023-05-19T11:02:51;102520.31;;;21.17;35.94
45523;BME280;31254;51.680;5.394;2023-05-19T11:05:27;102523.66;;;21.12;36.35
45523;BME280;31254;51.680;5.394;2023-05-19T11:07:57;102519.94;;;20.89;35.87
45523;BME280;31254;51.680;5.394;2023-05-19T11:10:28;102521.69;;;20.81;36.60
45523;BME280;31254;51.680;5.394;2023-05-19T11:12:56;102524.50;;;20.73;36.08
45523;BME280;31254;51.680;5.394;2023-05-19T11:15:26;102513.03;;;20.68;36.39
45523;BME280;31254;51.680;5.394;2023-05-19T11:17:53;102518.53;;;20.93;36.48
45523;BME280;31254;51.680;5.394;2023-05-19T11:20:22;102517.50;;;20.86;35.99
45523;BME280;31254;51.680;5.394;2023-05-19T11:23:08;102523.28;;;20.68;36.48
45523;BME280;31254;51.680;5.394;2023-05-19T11:25:47;102522.78;;;20.64;36.93
45523;BME280;31254;51.680;5.394;2023-05-19T11:28:17;102524.47;;;20.65;36.52
45523;BME280;31254;51.680;5.394;2023-05-19T11:30:53;102516.69;;;20.60;36.84
45523;BME280;31254;51.680;5.394;2023-05-19T11:33:24;102515.41;;;20.88;36.68
45523;BME280;31254;51.680;5.394;2023-05-19T11:35:55;102510.53;;;20.98;36.37
45523;BME280;31254;51.680;5.394;2023-05-19T11:38:28;102509.66;;;20.97;36.36
45523;BME280;31254;51.680;5.394;2023-05-19T11:41:02;102509.09;;;21.10;36.95
45523;BME280;31254;51.680;5.394;2023-05-19T11:43:28;102466.31;;;21.05;35.94
45523;BME280;31254;51.680;5.394;2023-05-19T11:45:55;102501.97;;;21.47;35.77
45523;BME280;31254;51.680;5.394;2023-05-19T11:48:23;102488.25;;;21.54;36.41
45523;BME280;31254;51.680;5.394;2023-05-19T11:50:51;102498.00;;;21.50;36.81
45523;BME280;31254;51.680;5.394;2023-05-19T11:53:18;102509.91;;;21.27;35.76
45523;BME280;31254;51.680;5.394;2023-05-19T11:55:50;102514.19;;;20.90;36.14
45523;BME280;31254;51.680;5.394;2023-05-19T11:58:24;102501.53;;;20.88;35.37
45523;BME280;31254;51.680;5.394;2023-05-19T12:00:52;102484.16;;;21.02;35.28
45523;BME280;31254;51.680;5.394;2023-05-19T12:03:22;102491.50;;;21.26;35.24
45523;BME280;31254;51.680;5.394;2023-05-19T12:05:54;102492.66;;;21.40;35.24
45523;BME280;31254;51.680;5.394;2023-05-19T12:08:21;102492.56;;;21.25;34.99
45523;BME280;31254;51.680;5.394;2023-05-19T12:10:48;102492.78;;;21.07;36.40
45523;BME280;31254;51.680;5.394;2023-05-19T12:13:16;102486.69;;;20.80;35.55
45523;BME280;31254;51.680;5.394;2023-05-19T12:15:43;102488.78;;;20.54;36.05
45523;BME280;31254;51.680;5.394;2023-05-19T12:18:10;102479.63;;;20.37;35.76
45523;BME280;31254;51.680;5.394;2023-05-19T12:20:36;102491.41;;;20.47;36.56
45523;BME280;31254;51.680;5.394;2023-05-19T12:23:04;102478.78;;;20.44;35.89
45523;BME280;31254;51.680;5.394;2023-05-19T12:25:31;102483.59;;;20.59;36.08
45523;BME280;31254;51.680;5.394;2023-05-19T12:28:02;102490.16;;;20.58;35.00
45523;BME280;31254;51.680;5.394;2023-05-19T12:30:30;102487.91;;;20.61;35.04
45523;BME280;31254;51.680;5.394;2023-05-19T12:33:00;102481.50;;;20.61;34.97
45523;BME280;31254;51.680;5.394;2023-05-19T12:35:31;102489.31;;;20.66;35.78
45523;BME280;31254;51.680;5.394;2023-05-19T12:38:08;102477.34;;;20.65;35.30
45523;BME280;31254;51.680;5.394;2023-05-19T12:40:35;102478.22;;;20.57;35.70
45523;BME280;31254;51.680;5.394;2023-05-19T12:43:04;102481.53;;;20.53;35.96
45523;BME280;31254;51.680;5.394;2023-05-19T12:45:34;102476.31;;;20.58;35.18
45523;BME280;31254;51.680;5.394;2023-05-19T12:48:03;102474.38;;;20.58;35.11
45523;BME280;31254;51.680;5.394;2023-05-19T12:50:32;102468.69;;;20.52;35.49
45523;BME280;31254;51.680;5.394;2023-05-19T12:53:00;102461.78;;;20.56;35.30
45523;BME280;31254;51.680;5.394;2023-05-19T12:55:29;102458.28;;;20.70;35.51
45523;BME280;31254;51.680;5.394;2023-05-19T12:57:56;102462.47;;;20.66;35.47
45523;BME280;31254;51.680;5.394;2023-05-19T13:00:26;102463.84;;;20.70;35.53
45523;BME280;31254;51.680;5.394;2023-05-19T13:03:06;102451.34;;;20.74;36.08
45523;BME280;31254;51.680;5.394;2023-05-19T13:05:35;102454.09;;;20.74;35.62
45523;BME280;31254;51.680;5.394;2023-05-19T13:08:08;102439.06;;;20.60;36.11
45523;BME280;31254;51.680;5.394;2023-05-19T13:10:39;102442.03;;;20.51;35.49
45523;BME280;31254;51.680;5.394;2023-05-19T13:13:06;102439.63;;;20.48;35.89
45523;BME280;31254;51.680;5.394;2023-05-19T13:15:37;102449.41;;;20.75;36.08
45523;BME280;31254;51.680;5.394;2023-05-19T13:18:10;102441.63;;;20.78;35.57
45523;BME280;31254;51.680;5.394;2023-05-19T13:20:39;102408.03;;;20.57;35.33
45523;BME280;31254;51.680;5.394;2023-05-19T13:23:06;102442.00;;;20.67;35.53
45523;BME280;31254;51.680;5.394;2023-05-19T13:25:33;102425.56;;;20.57;35.76
45523;BME280;31254;51.680;5.394;2023-05-19T13:28:01;102435.09;;;20.46;35.68